Braddock, New Jersey
Current Conditions -  °F | °C
As of 9:54 PM on Saturday 25 Oct 2014 (Local Time) from KACY Reporting Station
Clear Clear  
Wind Chill: 14°   Ceiling: Unl
Heat Index: 14°   Visibility: 10mi
Dew Point:   Wind: 9mph
Humidity: 72%   Direction: 230°SW
Pressure: 29.7"   Gusts: NA
Location:  39.637°N, 74.7602°W
Report Text: KACY 260154Z 23008KT 10SM CLR 14/09 A2970 RMK AO2 SLP056 T01390089
Loading
Personal Weather Stations






























Interactive Weather Map
Tropical Storm Tracking
New forecast layout! Learn more

10-Day Weather Forecast

Advertisements
Track Severe Weather on mobile